Time;durP1;ratioP1;P1;durP2;ratioP2;P2;SDS_P1;SDS_P2;PMS_P1;PMS_P2;Temp;Humidity;BMP_temperature;BMP_pressure;BME280_temperature;BME280_humidity;BME280_pressure;Samples;Min_cycle;Max_cycle;Signal;HPM_P1;HPM_P2
2021/03/10 00:01:55;;;;;;;12.02;6.32;;;;;;;;;;4999502;28;20046;-86
2021/03/10 00:04:22;;;;;;;12.90;6.65;;;;;;;;;;4998153;28;20038;-87
2021/03/10 00:06:48;;;;;;;12.82;6.03;;;;;;;;;;4997664;28;20034;-86
2021/03/10 00:09:15;;;;;;;12.35;6.43;;;;;;;;;;4997869;28;20034;-87
2021/03/10 00:11:41;;;;;;;10.95;7.05;;;;;;;;;;4999221;28;20027;-86
2021/03/10 00:14:07;;;;;;;12.38;7.13;;;;;;;;;;4999187;28;20023;-86
2021/03/10 00:16:33;;;;;;;13.18;7.00;;;;;;;;;;4997854;28;20034;-86
2021/03/10 00:18:59;;;;;;;15.15;6.75;;;;;;;;;;4998157;28;20425;-87
2021/03/10 00:21:25;;;;;;;12.15;6.75;;;;;;;;;;4997951;28;20325;-87
2021/03/10 00:23:51;;;;;;;11.55;6.28;;;;;;;;;;4998754;28;20034;-88
2021/03/10 00:26:17;;;;;;;12.00;6.63;;;;;;;;;;4997634;28;20093;-88
2021/03/10 00:28:43;;;;;;;13.10;6.82;;;;;;;;;;4998620;28;20061;-87
2021/03/10 00:31:09;;;;;;;16.38;7.30;;;;;;;;;;4998855;28;20409;-88
2021/03/10 00:33:35;;;;;;;22.88;10.35;;;;;;;;;;4998522;28;20026;-88
2021/03/10 00:36:01;;;;;;;15.80;7.75;;;;;;;;;;4998383;28;20036;-88
2021/03/10 00:38:27;;;;;;;15.88;7.80;;;;;;;;;;4998308;28;20029;-88
2021/03/10 00:40:53;;;;;;;14.10;7.53;;;;;;;;;;4998728;28;20312;-88
2021/03/10 00:43:19;;;;;;;12.65;6.72;;;;;;;;;;4997575;28;20029;-89
2021/03/10 00:45:46;;;;;;;12.38;6.80;;;;;;;;;;4998517;28;20027;-88
2021/03/10 00:48:12;;;;;;;13.63;7.10;;;;;;;;;;4997416;28;20018;-88
2021/03/10 00:50:38;;;;;;;14.75;6.90;;;;;;;;;;4998126;28;20073;-87
2021/03/10 00:53:04;;;;;;;10.07;6.60;;;;;;;;;;4998249;28;20031;-87
2021/03/10 00:55:30;;;;;;;18.73;9.00;;;;;;;;;;4998443;28;20022;-86
2021/03/10 00:57:56;;;;;;;12.07;6.60;;;;;;;;;;4997287;28;20050;-86
2021/03/10 01:00:22;;;;;;;10.40;6.50;;;;;;;;;;4998183;28;20025;-85
2021/03/10 01:02:48;;;;;;;14.02;7.68;;;;;;;;;;4998347;28;20019;-86
2021/03/10 01:05:15;;;;;;;16.27;7.00;;;;;;;;;;4997904;28;20018;-87
2021/03/10 01:07:41;;;;;;;15.57;6.80;;;;;;;;;;4997157;28;20037;-86
2021/03/10 01:10:08;;;;;;;10.88;6.78;;;;;;;;;;4997695;28;20058;-87
2021/03/10 01:12:35;;;;;;;14.98;7.40;;;;;;;;;;4998412;28;20030;-87
2021/03/10 01:15:01;;;;;;;13.27;7.03;;;;;;;;;;4998277;28;20038;-86
2021/03/10 01:17:27;;;;;;;12.32;7.18;;;;;;;;;;4997222;28;20058;-87
2021/03/10 01:19:53;;;;;;;13.35;6.82;;;;;;;;;;4996908;28;20324;-87
2021/03/10 01:25:23;;;;;;;14.93;7.40;;;;;;;;;;4998191;28;20033;-87
2021/03/10 01:27:49;;;;;;;17.25;7.53;;;;;;;;;;4998146;28;20049;-87
2021/03/10 01:30:16;;;;;;;13.20;7.35;;;;;;;;;;4997742;28;20357;-88
2021/03/10 01:32:42;;;;;;;11.40;7.03;;;;;;;;;;4997154;28;20465;-87
2021/03/10 01:35:09;;;;;;;12.40;7.25;;;;;;;;;;4998073;28;20030;-87
2021/03/10 01:37:53;;;;;;;12.15;7.38;;;;;;;;;;4998085;28;20516;-87
2021/03/10 01:40:19;;;;;;;13.65;7.40;;;;;;;;;;4998091;28;20032;-86
2021/03/10 01:42:51;;;;;;;14.13;7.75;;;;;;;;;;4997014;28;20544;-86
2021/03/10 01:45:17;;;;;;;15.32;7.05;;;;;;;;;;4996742;28;20061;-86
2021/03/10 01:47:45;;;;;;;10.90;6.97;;;;;;;;;;4997785;28;20045;-86
2021/03/10 01:50:12;;;;;;;11.90;6.57;;;;;;;;;;4997796;28;20029;-86
2021/03/10 01:55:42;;;;;;;13.75;7.60;;;;;;;;;;4997724;28;20037;-86
2021/03/10 01:58:08;;;;;;;11.27;6.47;;;;;;;;;;4997586;28;20045;-85
2021/03/10 02:00:34;;;;;;;12.07;6.68;;;;;;;;;;4996631;28;20026;-86
2021/03/10 02:03:00;;;;;;;12.27;6.43;;;;;;;;;;4997879;28;20397;-86
2021/03/10 02:05:26;;;;;;;12.57;7.13;;;;;;;;;;4997565;28;20018;-86
2021/03/10 02:08:06;;;;;;;13.43;6.82;;;;;;;;;;4997447;28;20023;-88
2021/03/10 02:10:52;;;;;;;14.10;6.82;;;;;;;;;;4997480;28;20035;-87
2021/03/10 02:13:18;;;;;;;11.57;6.28;;;;;;;;;;4996799;28;20030;-87
2021/03/10 02:16:06;;;;;;;12.20;6.93;;;;;;;;;;4997057;28;20022;-88
2021/03/10 02:18:36;;;;;;;12.88;6.90;;;;;;;;;;4996714;28;20121;-88
2021/03/10 02:21:03;;;;;;;11.65;6.65;;;;;;;;;;4997523;28;20050;-88
2021/03/10 02:23:47;;;;;;;13.50;7.03;;;;;;;;;;5000595;28;20023;-88
2021/03/10 02:26:27;;;;;;;12.88;6.72;;;;;;;;;;5001023;28;20035;-87
2021/03/10 02:28:54;;;;;;;12.13;6.70;;;;;;;;;;5000024;28;20014;-88
2021/03/10 02:31:21;;;;;;;11.50;7.07;;;;;;;;;;5000834;28;20033;-87
2021/03/10 02:33:47;;;;;;;16.00;8.48;;;;;;;;;;5000832;28;20068;-86
2021/03/10 02:36:14;;;;;;;16.00;8.85;;;;;;;;;;4999966;28;20030;-86
2021/03/10 02:38:44;;;;;;;14.68;8.15;;;;;;;;;;5000954;28;20023;-85
2021/03/10 02:41:10;;;;;;;18.92;9.65;;;;;;;;;;5000626;28;20032;-87
2021/03/10 02:43:38;;;;;;;15.20;8.38;;;;;;;;;;5000872;28;20114;-86
2021/03/10 02:46:05;;;;;;;20.48;10.02;;;;;;;;;;5000758;28;20030;-86
2021/03/10 02:48:32;;;;;;;17.58;9.05;;;;;;;;;;5000648;28;20030;-86
2021/03/10 02:54:03;;;;;;;11.75;7.35;;;;;;;;;;5000677;28;20033;-87
2021/03/10 02:56:29;;;;;;;14.65;7.72;;;;;;;;;;5000329;28;20053;-86
2021/03/10 02:58:55;;;;;;;15.60;8.23;;;;;;;;;;4999510;28;20026;-87
2021/03/10 03:01:21;;;;;;;15.88;8.10;;;;;;;;;;5000076;28;20081;-86
2021/03/10 03:03:47;;;;;;;14.63;7.72;;;;;;;;;;5000352;28;20105;-88
2021/03/10 03:06:13;;;;;;;15.85;7.78;;;;;;;;;;5000100;28;20409;-87
2021/03/10 03:08:39;;;;;;;14.30;8.25;;;;;;;;;;5000159;28;20157;-87
2021/03/10 03:11:05;;;;;;;19.35;9.52;;;;;;;;;;5000078;28;20029;-86
2021/03/10 03:13:32;;;;;;;14.55;8.93;;;;;;;;;;5000238;28;20042;-87
2021/03/10 03:15:59;;;;;;;19.63;9.15;;;;;;;;;;5000166;28;20027;-87
2021/03/10 03:18:29;;;;;;;17.92;9.02;;;;;;;;;;5000261;28;20037;-87
2021/03/10 03:20:56;;;;;;;17.08;9.27;;;;;;;;;;4999008;28;20121;-88
2021/03/10 03:23:59;;;;;;;17.00;9.63;;;;;;;;;;4998971;28;20026;-88
2021/03/10 03:26:25;;;;;;;18.35;9.98;;;;;;;;;;4999504;28;20073;-87
2021/03/10 03:28:52;;;;;;;17.55;9.73;;;;;;;;;;4999953;28;20030;-87
2021/03/10 03:31:18;;;;;;;16.95;10.05;;;;;;;;;;4999689;28;20023;-88
2021/03/10 03:33:44;;;;;;;18.02;9.40;;;;;;;;;;4999465;28;20077;-87
2021/03/10 03:39:15;;;;;;;14.10;8.20;;;;;;;;;;4999841;28;20066;-86
2021/03/10 03:41:42;;;;;;;14.23;7.40;;;;;;;;;;4998730;28;20033;-90
2021/03/10 03:44:08;;;;;;;13.93;7.20;;;;;;;;;;4998694;28;20026;-89
2021/03/10 03:46:35;;;;;;;13.25;7.53;;;;;;;;;;4999376;28;20030;-88
2021/03/10 03:49:02;;;;;;;10.98;6.35;;;;;;;;;;4999501;28;20422;-89
2021/03/10 03:54:32;;;;;;;14.50;6.85;;;;;;;;;;4999334;28;20113;-88
2021/03/10 03:56:58;;;;;;;12.45;7.78;;;;;;;;;;4998599;28;20030;-86
2021/03/10 03:59:24;;;;;;;14.57;7.45;;;;;;;;;;4999589;28;20029;-87
2021/03/10 04:01:50;;;;;;;10.73;6.63;;;;;;;;;;4999410;28;20033;-88
2021/03/10 04:04:16;;;;;;;10.48;6.90;;;;;;;;;;4999439;28;20026;-87
2021/03/10 04:06:49;;;;;;;13.23;6.78;;;;;;;;;;4999079;28;20109;-87
2021/03/10 04:09:15;;;;;;;15.88;6.70;;;;;;;;;;4999286;28;20022;-88
2021/03/10 04:11:48;;;;;;;12.57;7.07;;;;;;;;;;4998004;28;20030;-88
2021/03/10 04:14:14;;;;;;;;;;;;;;;;;;4998337;28;20306;-86
2021/03/10 04:16:40;;;;;;;12.32;7.18;;;;;;;;;;4998849;28;19912;-86
2021/03/10 04:19:06;;;;;;;14.50;7.82;;;;;;;;;;4997802;28;20037;-87
2021/03/10 04:21:32;;;;;;;15.18;7.80;;;;;;;;;;4997752;28;20030;-87
2021/03/10 04:23:59;;;;;;;16.42;7.43;;;;;;;;;;4998668;28;20035;-86
2021/03/10 04:26:25;;;;;;;15.88;8.10;;;;;;;;;;4998865;28;20026;-88
2021/03/10 04:28:51;;;;;;;14.45;7.28;;;;;;;;;;4998756;28;20030;-86
2021/03/10 04:31:17;;;;;;;12.05;7.57;;;;;;;;;;4997605;28;20138;-86
2021/03/10 04:33:43;;;;;;;17.38;8.60;;;;;;;;;;4997477;28;20022;-86
2021/03/10 04:36:10;;;;;;;18.40;8.18;;;;;;;;;;4997830;28;20033;-86
2021/03/10 04:38:36;;;;;;;20.08;9.68;;;;;;;;;;4998618;28;20349;-86
2021/03/10 04:41:02;;;;;;;21.25;10.25;;;;;;;;;;4998575;28;20409;-87
2021/03/10 04:43:28;;;;;;;20.35;9.00;;;;;;;;;;4998486;28;20018;-86
2021/03/10 04:45:55;;;;;;;20.60;9.38;;;;;;;;;;4997758;28;20120;-86
2021/03/10 04:48:21;;;;;;;18.60;8.80;;;;;;;;;;4998308;28;20042;-86
2021/03/10 04:50:47;;;;;;;19.50;8.88;;;;;;;;;;4998255;28;20337;-86
2021/03/10 04:53:13;;;;;;;22.63;9.48;;;;;;;;;;4997372;28;20022;-86
2021/03/10 04:55:39;;;;;;;20.17;10.32;;;;;;;;;;4998074;28;20022;-86
2021/03/10 04:58:05;;;;;;;17.67;10.50;;;;;;;;;;4998267;28;20105;-87
2021/03/10 05:00:31;;;;;;;16.63;9.85;;;;;;;;;;4998160;28;20101;-87
2021/03/10 05:02:57;;;;;;;17.75;9.60;;;;;;;;;;4998479;28;20114;-87
2021/03/10 05:05:23;;;;;;;23.63;10.77;;;;;;;;;;4998429;28;20030;-87
2021/03/10 05:08:10;;;;;;;22.55;10.20;;;;;;;;;;4998334;28;20026;-87
2021/03/10 05:10:36;;;;;;;20.75;8.82;;;;;;;;;;4998054;28;20077;-86
2021/03/10 05:13:03;;;;;;;16.27;9.70;;;;;;;;;;4998364;28;20026;-88
2021/03/10 05:15:29;;;;;;;17.70;9.32;;;;;;;;;;4998423;28;20022;-90
2021/03/10 05:17:55;;;;;;;20.10;8.93;;;;;;;;;;4998066;28;20027;-90
2021/03/10 05:20:21;;;;;;;17.98;8.63;;;;;;;;;;4998113;28;20157;-90
2021/03/10 05:23:05;;;;;;;16.20;7.55;;;;;;;;;;4997992;28;20018;-87
2021/03/10 05:25:31;;;;;;;15.52;9.02;;;;;;;;;;4996832;28;20145;-86
2021/03/10 05:27:57;;;;;;;15.07;8.13;;;;;;;;;;4997905;28;20029;-87
2021/03/10 05:30:23;;;;;;;16.50;9.00;;;;;;;;;;4997947;28;20026;-88
2021/03/10 05:32:49;;;;;;;18.63;10.48;;;;;;;;;;4997615;28;20046;-88
2021/03/10 05:35:15;;;;;;;23.02;11.82;;;;;;;;;;4997016;28;20165;-86
2021/03/10 05:43:49;;;;;;;26.05;13.50;;;;;;;;;;4998064;28;20093;-87
2021/03/10 05:46:15;;;;;;;23.67;13.07;;;;;;;;;;4997642;28;20026;-86
2021/03/10 05:48:41;;;;;;;25.20;13.30;;;;;;;;;;4997688;28;20433;-85
2021/03/10 05:51:07;;;;;;;29.50;14.55;;;;;;;;;;4997663;28;20093;-86
2021/03/10 05:59:41;;;;;;;24.92;12.77;;;;;;;;;;5001882;28;20032;-86
2021/03/10 06:02:07;;;;;;;22.20;12.60;;;;;;;;;;5001419;28;20033;-88
2021/03/10 06:04:40;;;;;;;23.00;11.85;;;;;;;;;;5001722;28;20019;-86
2021/03/10 06:07:07;;;;;;;25.00;13.40;;;;;;;;;;5001642;28;20033;-89
2021/03/10 06:09:33;;;;;;;27.42;15.70;;;;;;;;;;5000320;28;20034;-89
2021/03/10 06:12:03;;;;;;;28.02;15.65;;;;;;;;;;5001547;28;20023;-89
2021/03/10 06:14:30;;;;;;;21.65;12.68;;;;;;;;;;5001445;28;20109;-88
2021/03/10 06:17:06;;;;;;;20.92;11.30;;;;;;;;;;5001129;28;20082;-88
2021/03/10 06:19:45;;;;;;;26.65;13.55;;;;;;;;;;5001146;28;20046;-88
2021/03/10 06:22:12;;;;;;;30.58;16.40;;;;;;;;;;5001486;28;20050;-87
2021/03/10 06:24:38;;;;;;;41.70;16.85;;;;;;;;;;5000502;28;20317;-90
2021/03/10 06:27:04;;;;;;;35.08;17.63;;;;;;;;;;5000022;28;20030;-89
2021/03/10 06:29:30;;;;;;;36.58;18.27;;;;;;;;;;5000639;28;20102;-88
2021/03/10 06:32:09;;;;;;;19.88;11.48;;;;;;;;;;5001159;28;20022;-86
2021/03/10 06:34:45;;;;;;;38.03;17.67;;;;;;;;;;5000726;28;20029;-87
2021/03/10 06:37:12;;;;;;;24.70;12.77;;;;;;;;;;5001021;28;20026;-86
2021/03/10 06:39:38;;;;;;;26.58;14.18;;;;;;;;;;5000818;28;20031;-86
2021/03/10 06:42:14;;;;;;;30.20;16.00;;;;;;;;;;5000642;28;20026;-86
2021/03/10 06:44:56;;;;;;;41.42;21.83;;;;;;;;;;5000994;28;20068;-86
2021/03/10 06:47:22;;;;;;;45.03;23.95;;;;;;;;;;5000411;28;20073;-83
2021/03/10 06:49:52;;;;;;;28.30;15.13;;;;;;;;;;5000195;28;20309;-82
2021/03/10 06:52:18;;;;;;;27.00;15.55;;;;;;;;;;4999631;28;20100;-81
2021/03/10 06:54:45;;;;;;;26.40;13.05;;;;;;;;;;4998913;28;20081;-82
2021/03/10 06:57:13;;;;;;;24.15;12.05;;;;;;;;;;5000195;28;20026;-82
2021/03/10 06:59:45;;;;;;;29.60;14.38;;;;;;;;;;5000201;28;20033;-86
2021/03/10 07:02:15;;;;;;;20.95;10.57;;;;;;;;;;4999020;28;20100;-83
2021/03/10 07:04:42;;;;;;;19.42;8.70;;;;;;;;;;4999925;28;20030;-83
2021/03/10 07:07:09;;;;;;;21.92;11.18;;;;;;;;;;4999403;28;20444;-82
2021/03/10 07:09:35;;;;;;;23.10;10.30;;;;;;;;;;4999689;28;20019;-82
2021/03/10 07:12:02;;;;;;;24.52;10.07;;;;;;;;;;5000024;28;20033;-83
2021/03/10 07:14:28;;;;;;;19.75;9.27;;;;;;;;;;4999758;28;20026;-82
2021/03/10 07:16:56;;;;;;;17.75;9.07;;;;;;;;;;4999747;28;20081;-82
2021/03/10 07:19:22;;;;;;;16.90;9.65;;;;;;;;;;4999549;28;20026;-82
2021/03/10 07:21:57;;;;;;;19.20;9.88;;;;;;;;;;4999580;28;20065;-82
2021/03/10 07:24:53;;;;;;;18.30;8.75;;;;;;;;;;4999405;28;20035;-81
2021/03/10 07:27:21;;;;;;;17.38;9.43;;;;;;;;;;4923639;28;20098;-82
2021/03/10 07:29:47;;;;;;;20.40;10.30;;;;;;;;;;4922793;29;20035;-82
2021/03/10 07:32:16;;;;;;;18.10;9.57;;;;;;;;;;4939410;29;20039;-80
2021/03/10 07:34:42;;;;;;;19.35;9.63;;;;;;;;;;4939469;29;20031;-81
2021/03/10 07:37:15;;;;;;;21.55;10.90;;;;;;;;;;4939445;29;20347;-80
2021/03/10 07:39:42;;;;;;;18.77;9.70;;;;;;;;;;4922787;29;20450;-79
2021/03/10 07:42:13;;;;;;;27.58;15.60;;;;;;;;;;4923389;29;20122;-81
2021/03/10 07:44:39;;;;;;;44.30;12.48;;;;;;;;;;4939188;29;20071;-81
2021/03/10 07:47:08;;;;;;;20.77;8.90;;;;;;;;;;4939202;29;20031;-80
2021/03/10 07:49:34;;;;;;;22.67;10.18;;;;;;;;;;4939074;29;20079;-79
2021/03/10 07:52:05;;;;;;;20.95;11.43;;;;;;;;;;4938758;29;20079;-80
2021/03/10 07:54:31;;;;;;;18.30;9.95;;;;;;;;;;4939055;29;20028;-80
2021/03/10 07:57:07;;;;;;;13.45;7.95;;;;;;;;;;4923228;29;20036;-80
2021/03/10 07:59:33;;;;;;;18.05;8.82;;;;;;;;;;4938997;29;20027;-80
2021/03/10 08:02:06;;;;;;;15.90;9.15;;;;;;;;;;4938898;29;20032;-79
2021/03/10 08:04:32;;;;;;;15.50;8.75;;;;;;;;;;4990113;28;20096;-80
2021/03/10 08:06:58;;;;;;;15.32;8.07;;;;;;;;;;4998400;28;20077;-80
2021/03/10 08:09:25;;;;;;;16.40;9.35;;;;;;;;;;4998233;28;20080;-80
2021/03/10 08:12:05;;;;;;;18.50;9.60;;;;;;;;;;4998501;28;20029;-80
2021/03/10 08:14:36;;;;;;;20.33;10.55;;;;;;;;;;4998428;28;20069;-80
2021/03/10 08:17:02;;;;;;;21.48;11.93;;;;;;;;;;4998349;28;20080;-78
2021/03/10 08:19:28;;;;;;;16.05;9.32;;;;;;;;;;4997261;28;20026;-79
2021/03/10 08:21:55;;;;;;;17.33;8.57;;;;;;;;;;4997999;28;20034;-79
2021/03/10 08:24:22;;;;;;;22.52;12.32;;;;;;;;;;4998140;28;20033;-79
2021/03/10 08:26:49;;;;;;;14.38;9.15;;;;;;;;;;4997856;28;20405;-79
2021/03/10 08:29:15;;;;;;;11.60;7.20;;;;;;;;;;4998371;28;20296;-79
2021/03/10 08:31:45;;;;;;;13.30;7.47;;;;;;;;;;4998277;28;20353;-78
2021/03/10 08:34:11;;;;;;;21.70;9.27;;;;;;;;;;4998028;28;20420;-78
2021/03/10 08:36:37;;;;;;;15.20;7.68;;;;;;;;;;4997092;28;20046;-79
2021/03/10 08:39:11;;;;;;;13.07;7.10;;;;;;;;;;4996906;28;20038;-79
2021/03/10 08:41:44;;;;;;;14.10;6.78;;;;;;;;;;4998034;28;20030;-79
2021/03/10 08:44:11;;;;;;;18.17;8.27;;;;;;;;;;4996456;28;20038;-79
2021/03/10 08:46:41;;;;;;;14.68;8.32;;;;;;;;;;4996714;28;20068;-79
2021/03/10 08:49:42;;;;;;;14.43;8.15;;;;;;;;;;4997911;28;20034;-78
2021/03/10 08:52:10;;;;;;;21.65;7.93;;;;;;;;;;4937738;29;20356;-80
2021/03/10 08:54:54;;;;;;;18.85;7.35;;;;;;;;;;4938215;29;20133;-79
2021/03/10 08:57:22;;;;;;;24.67;12.18;;;;;;;;;;4938041;29;20024;-77
2021/03/10 08:59:48;;;;;;;21.10;9.15;;;;;;;;;;4938041;28;20046;-80
2021/03/10 09:02:15;;;;;;;26.38;9.00;;;;;;;;;;4938070;29;20036;-79
2021/03/10 09:04:48;;;;;;;18.63;9.25;;;;;;;;;;4937864;29;20453;-79
2021/03/10 09:07:18;;;;;;;16.17;7.80;;;;;;;;;;4937794;29;20048;-79
2021/03/10 09:09:44;;;;;;;19.35;8.40;;;;;;;;;;4921346;29;20036;-79
2021/03/10 09:12:10;;;;;;;16.67;8.00;;;;;;;;;;4937916;28;20159;-79
2021/03/10 09:14:37;;;;;;;17.88;8.43;;;;;;;;;;4937950;29;20421;-79
2021/03/10 09:17:03;;;;;;;14.43;7.32;;;;;;;;;;4921821;29;20462;-79
2021/03/10 09:19:39;;;;;;;15.77;9.23;;;;;;;;;;4921102;29;20419;-77
2021/03/10 09:22:19;;;;;;;15.48;8.40;;;;;;;;;;4937599;29;20032;-79
2021/03/10 09:24:52;;;;;;;13.90;7.40;;;;;;;;;;4937824;29;20032;-79
2021/03/10 09:27:28;;;;;;;13.40;7.78;;;;;;;;;;4997420;28;20034;-78
2021/03/10 09:29:56;;;;;;;12.00;7.07;;;;;;;;;;4997349;28;20015;-79
2021/03/10 09:32:23;;;;;;;15.98;8.43;;;;;;;;;;5000824;28;20460;-78
2021/03/10 09:34:53;;;;;;;14.82;7.75;;;;;;;;;;5001301;28;20313;-79
2021/03/10 09:37:28;;;;;;;13.98;8.52;;;;;;;;;;5001373;28;20022;-78
2021/03/10 09:39:55;;;;;;;15.55;8.27;;;;;;;;;;5000319;28;20353;-79
2021/03/10 09:42:21;;;;;;;18.20;8.52;;;;;;;;;;5001150;28;20026;-79
2021/03/10 09:44:47;;;;;;;14.60;8.25;;;;;;;;;;5001158;28;20405;-79
2021/03/10 09:47:24;;;;;;;13.48;7.53;;;;;;;;;;5001055;28;20424;-78
2021/03/10 09:49:52;;;;;;;13.00;8.02;;;;;;;;;;5001145;28;20018;-79
2021/03/10 09:52:18;;;;;;;17.17;9.13;;;;;;;;;;4999674;28;20076;-79
2021/03/10 09:54:52;;;;;;;13.02;7.40;;;;;;;;;;5000883;28;20027;-79
2021/03/10 09:57:27;;;;;;;14.77;7.68;;;;;;;;;;5001198;28;20046;-79
2021/03/10 09:59:53;;;;;;;22.00;13.32;;;;;;;;;;4999816;28;20038;-79
2021/03/10 10:02:19;;;;;;;16.58;9.65;;;;;;;;;;5000822;28;20022;-79
2021/03/10 10:04:49;;;;;;;16.15;8.77;;;;;;;;;;5000959;28;20030;-79
2021/03/10 10:07:15;;;;;;;17.20;9.68;;;;;;;;;;5000651;28;20030;-78
2021/03/10 10:09:41;;;;;;;15.55;9.35;;;;;;;;;;5000763;28;20026;-78
2021/03/10 10:12:08;;;;;;;13.10;8.15;;;;;;;;;;5000099;28;20031;-79
2021/03/10 10:14:34;;;;;;;16.83;8.57;;;;;;;;;;4999382;28;20030;-79
2021/03/10 10:17:00;;;;;;;14.30;8.27;;;;;;;;;;5000668;28;20026;-79
2021/03/10 10:19:26;;;;;;;23.45;8.18;;;;;;;;;;5000658;28;20049;-79
2021/03/10 10:21:52;;;;;;;18.27;8.18;;;;;;;;;;5000675;28;20380;-79
2021/03/10 10:24:19;;;;;;;13.32;7.47;;;;;;;;;;5000450;28;20022;-79
2021/03/10 10:26:45;;;;;;;14.80;9.40;;;;;;;;;;5000257;28;20042;-80
2021/03/10 10:29:11;;;;;;;40.78;11.52;;;;;;;;;;5000674;28;20030;-77
2021/03/10 10:31:37;;;;;;;14.02;8.93;;;;;;;;;;4996578;28;20057;-77
2021/03/10 10:34:03;;;;;;;13.43;7.97;;;;;;;;;;4999060;28;20037;-77
2021/03/10 10:36:30;;;;;;;13.27;7.63;;;;;;;;;;4999079;28;20110;-77
2021/03/10 10:38:56;;;;;;;14.10;8.52;;;;;;;;;;4999308;28;20306;-77
2021/03/10 10:41:22;;;;;;;17.70;11.18;;;;;;;;;;4999798;28;20181;-77
2021/03/10 10:43:48;;;;;;;16.38;9.40;;;;;;;;;;4998898;28;20041;-77
2021/03/10 10:46:14;;;;;;;17.73;9.48;;;;;;;;;;4998709;28;20030;-77
2021/03/10 10:48:40;;;;;;;19.50;9.13;;;;;;;;;;4999105;28;20310;-76
2021/03/10 10:51:06;;;;;;;14.65;9.10;;;;;;;;;;4999581;28;20350;-77
2021/03/10 10:53:32;;;;;;;13.48;8.10;;;;;;;;;;4998713;28;20038;-76
2021/03/10 10:55:58;;;;;;;17.63;10.23;;;;;;;;;;4999476;28;20101;-76
2021/03/10 10:58:24;;;;;;;16.35;9.85;;;;;;;;;;4999708;28;20038;-76
2021/03/10 11:00:51;;;;;;;19.85;9.65;;;;;;;;;;4999801;28;20026;-77
2021/03/10 11:03:17;;;;;;;22.67;11.77;;;;;;;;;;4999305;28;20041;-78
2021/03/10 11:05:43;;;;;;;35.45;19.90;;;;;;;;;;4999406;28;20037;-78
2021/03/10 11:08:09;;;;;;;22.33;13.07;;;;;;;;;;4999453;28;20050;-77
2021/03/10 11:10:35;;;;;;;17.83;11.95;;;;;;;;;;4999376;28;20049;-77
2021/03/10 11:13:01;;;;;;;17.15;9.77;;;;;;;;;;4999469;28;20029;-78
2021/03/10 11:15:27;;;;;;;15.50;9.70;;;;;;;;;;4999273;28;20378;-77
2021/03/10 11:17:54;;;;;;;14.55;8.88;;;;;;;;;;4999244;28;20022;-78
2021/03/10 11:20:20;;;;;;;14.93;9.43;;;;;;;;;;4998886;28;20425;-78
2021/03/10 11:22:46;;;;;;;13.77;8.93;;;;;;;;;;4997928;28;20038;-78
2021/03/10 11:25:13;;;;;;;13.88;9.30;;;;;;;;;;4998836;28;20317;-77
2021/03/10 11:27:39;;;;;;;18.38;10.30;;;;;;;;;;4998754;28;20029;-78
2021/03/10 11:30:06;;;;;;;20.90;12.55;;;;;;;;;;4999089;28;20054;-78
2021/03/10 11:32:32;;;;;;;20.90;13.20;;;;;;;;;;4998676;28;20026;-77
2021/03/10 11:34:58;;;;;;;19.60;11.32;;;;;;;;;;4999118;28;20088;-78
2021/03/10 11:37:24;;;;;;;17.90;11.25;;;;;;;;;;4998391;28;20089;-78
2021/03/10 11:39:50;;;;;;;15.10;9.20;;;;;;;;;;4998855;28;20053;-78
2021/03/10 11:42:17;;;;;;;22.77;12.18;;;;;;;;;;4999042;28;20483;-78
2021/03/10 11:44:43;;;;;;;24.10;12.20;;;;;;;;;;4998719;28;20030;-78
2021/03/10 11:47:09;;;;;;;21.73;11.57;;;;;;;;;;4998336;28;20027;-78
2021/03/10 11:49:35;;;;;;;16.27;10.15;;;;;;;;;;4998790;28;20089;-78
2021/03/10 11:52:01;;;;;;;61.53;34.25;;;;;;;;;;4998294;28;20046;-79
2021/03/10 11:54:27;;;;;;;67.78;39.58;;;;;;;;;;4998445;28;20023;-78
2021/03/10 11:56:53;;;;;;;24.92;16.08;;;;;;;;;;4997383;28;20074;-79
2021/03/10 11:59:20;;;;;;;25.10;14.00;;;;;;;;;;4997531;28;20026;-79
2021/03/10 12:01:46;;;;;;;19.15;11.90;;;;;;;;;;4998346;28;20080;-79
2021/03/10 12:04:12;;;;;;;18.23;11.95;;;;;;;;;;4997143;28;20045;-79
2021/03/10 12:06:38;;;;;;;20.08;14.27;;;;;;;;;;4998105;28;20029;-78
2021/03/10 12:09:05;;;;;;;27.73;16.92;;;;;;;;;;4998305;28;20053;-79
2021/03/10 12:11:31;;;;;;;17.88;10.45;;;;;;;;;;4998112;28;20433;-79
2021/03/10 12:13:57;;;;;;;17.55;11.20;;;;;;;;;;4998041;28;20073;-78
2021/03/10 12:16:23;;;;;;;17.90;11.02;;;;;;;;;;4998093;28;20026;-78
2021/03/10 12:18:49;;;;;;;18.08;10.68;;;;;;;;;;4998212;28;20029;-79
2021/03/10 12:21:16;;;;;;;17.75;11.02;;;;;;;;;;4997856;28;20303;-78
2021/03/10 12:23:42;;;;;;;18.73;11.95;;;;;;;;;;4998070;28;20030;-79
2021/03/10 12:26:08;;;;;;;19.92;13.13;;;;;;;;;;4998299;28;20097;-79
2021/03/10 12:28:34;;;;;;;27.33;14.10;;;;;;;;;;4997970;28;20022;-79
2021/03/10 12:31:00;;;;;;;29.42;23.52;;;;;;;;;;4997624;28;20022;-79
2021/03/10 12:33:26;;;;;;;24.80;15.80;;;;;;;;;;4998000;28;20026;-79
2021/03/10 12:35:52;;;;;;;33.17;25.02;;;;;;;;;;4997919;28;20046;-78
2021/03/10 12:38:18;;;;;;;19.90;14.07;;;;;;;;;;4997718;28;20022;-79
2021/03/10 12:40:44;;;;;;;24.52;17.00;;;;;;;;;;4997692;28;20029;-78
2021/03/10 12:43:10;;;;;;;21.95;12.75;;;;;;;;;;4996560;28;20031;-79
2021/03/10 12:45:37;;;;;;;21.10;11.13;;;;;;;;;;4997685;28;20049;-79
2021/03/10 12:48:03;;;;;;;17.92;11.32;;;;;;;;;;4997774;28;20030;-79
2021/03/10 12:50:30;;;;;;;16.95;10.27;;;;;;;;;;4996259;28;20117;-79
2021/03/10 12:52:56;;;;;;;16.30;10.27;;;;;;;;;;4997285;28;20038;-79
2021/03/10 12:55:22;;;;;;;28.92;13.55;;;;;;;;;;4996324;28;20113;-79
2021/03/10 12:57:48;;;;;;;20.52;12.38;;;;;;;;;;4997238;28;20409;-79
2021/03/10 13:00:16;;;;;;;23.48;12.15;;;;;;;;;;4997540;28;20041;-79
2021/03/10 13:02:42;;;;;;;24.13;11.30;;;;;;;;;;4983521;28;20330;-79
2021/03/10 13:05:09;;;;;;;18.27;9.90;;;;;;;;;;4976412;28;20023;-80
2021/03/10 13:07:35;;;;;;;17.52;10.38;;;;;;;;;;4977694;28;20023;-79
2021/03/10 13:10:01;;;;;;;16.95;11.13;;;;;;;;;;4977982;28;20031;-80
2021/03/10 13:12:29;;;;;;;21.92;11.88;;;;;;;;;;4977805;28;20038;-79
2021/03/10 13:14:56;;;;;;;16.15;10.60;;;;;;;;;;4977975;28;20406;-79
2021/03/10 13:17:22;;;;;;;16.50;10.65;;;;;;;;;;4977990;28;20046;-79
2021/03/10 13:19:49;;;;;;;14.90;10.45;;;;;;;;;;4977811;28;20023;-79
2021/03/10 13:22:16;;;;;;;26.40;11.50;;;;;;;;;;4977748;28;20031;-79
2021/03/10 13:24:42;;;;;;;20.02;12.07;;;;;;;;;;4976775;28;20062;-79
2021/03/10 13:27:08;;;;;;;16.55;11.18;;;;;;;;;;4977448;28;20402;-79
2021/03/10 13:29:34;;;;;;;24.48;12.02;;;;;;;;;;4976680;28;20485;-80
2021/03/10 13:32:00;;;;;;;29.00;15.70;;;;;;;;;;4984763;28;20325;-80
2021/03/10 13:34:26;;;;;;;20.90;12.70;;;;;;;;;;4997007;28;20314;-79
2021/03/10 13:36:52;;;;;;;21.15;13.07;;;;;;;;;;4996044;28;20149;-79
2021/03/10 13:39:18;;;;;;;24.20;14.23;;;;;;;;;;4995869;28;20042;-79
2021/03/10 13:41:44;;;;;;;26.35;12.90;;;;;;;;;;4996932;28;20121;-79
2021/03/10 13:44:10;;;;;;;24.75;12.75;;;;;;;;;;4997269;28;20290;-79
2021/03/10 13:46:36;;;;;;;23.10;12.38;;;;;;;;;;4997018;28;20033;-79
2021/03/10 13:49:03;;;;;;;23.60;12.88;;;;;;;;;;4996041;28;20154;-80
2021/03/10 13:51:29;;;;;;;17.88;11.70;;;;;;;;;;4996624;28;20046;-79
2021/03/10 13:53:56;;;;;;;21.00;11.50;;;;;;;;;;4997014;28;20030;-79
2021/03/10 13:56:22;;;;;;;35.08;17.67;;;;;;;;;;4996905;28;20117;-79
2021/03/10 13:58:48;;;;;;;37.53;16.80;;;;;;;;;;4996917;28;20031;-79
2021/03/10 14:01:14;;;;;;;22.92;13.25;;;;;;;;;;4996974;28;20073;-79
2021/03/10 14:03:40;;;;;;;32.30;17.80;;;;;;;;;;4995939;28;20066;-79
2021/03/10 14:06:06;;;;;;;29.48;16.88;;;;;;;;;;4996460;28;20026;-79
2021/03/10 14:08:32;;;;;;;21.55;12.75;;;;;;;;;;4996802;28;20321;-79
2021/03/10 14:11:01;;;;;;;20.92;12.50;;;;;;;;;;4996908;28;20025;-79
2021/03/10 14:13:27;;;;;;;25.42;14.13;;;;;;;;;;4996816;28;20073;-79
2021/03/10 14:15:53;;;;;;;19.98;12.27;;;;;;;;;;4995596;28;20121;-79
2021/03/10 14:18:19;;;;;;;29.35;14.48;;;;;;;;;;4998788;28;20057;-79
2021/03/10 14:20:45;;;;;;;18.60;11.07;;;;;;;;;;4999435;28;20023;-79
2021/03/10 14:23:11;;;;;;;18.35;11.57;;;;;;;;;;4999045;28;20345;-79
2021/03/10 14:25:37;;;;;;;22.00;13.23;;;;;;;;;;5000107;28;20022;-79
2021/03/10 14:28:03;;;;;;;19.83;12.10;;;;;;;;;;5000180;28;20037;-79
2021/03/10 14:30:29;;;;;;;21.70;10.65;;;;;;;;;;5000133;28;20018;-79
2021/03/10 14:32:56;;;;;;;19.67;11.18;;;;;;;;;;4999867;28;20408;-80
2021/03/10 14:35:23;;;;;;;19.10;9.68;;;;;;;;;;4999787;28;20034;-80
2021/03/10 14:37:49;;;;;;;30.05;14.35;;;;;;;;;;5000151;28;20023;-79
2021/03/10 14:40:16;;;;;;;29.33;14.93;;;;;;;;;;4998998;28;20030;-79
2021/03/10 14:42:42;;;;;;;23.40;12.55;;;;;;;;;;5000006;28;20034;-80
2021/03/10 14:45:09;;;;;;;19.23;11.80;;;;;;;;;;4999878;28;20022;-79
2021/03/10 14:47:35;;;;;;;23.00;13.55;;;;;;;;;;4999812;28;20064;-79
2021/03/10 14:50:01;;;;;;;20.92;12.25;;;;;;;;;;4999913;28;20026;-79
2021/03/10 14:52:27;;;;;;;20.98;12.15;;;;;;;;;;4999434;28;20425;-79
2021/03/10 14:54:55;;;;;;;29.58;13.48;;;;;;;;;;4999810;28;20034;-79
2021/03/10 14:57:21;;;;;;;25.75;13.73;;;;;;;;;;4999499;28;20034;-79